createdAt,value
2023-04-02T00:04:09.211Z,77.90
2023-04-02T00:09:17.557Z,88.20
2023-04-02T00:14:31.871Z,89.30
2023-04-02T00:19:51.755Z,94.10
2023-04-02T00:25:02.964Z,89.10
2023-04-02T00:30:06.708Z,79.30
2023-04-02T00:35:21.891Z,78.20
2023-04-02T00:40:26.813Z,90.10
2023-04-02T00:45:33.310Z,97.10
2023-04-02T00:50:55.445Z,94.30
2023-04-02T00:55:58.961Z,90.00
2023-04-02T01:01:04.728Z,92.60
2023-04-02T01:06:15.898Z,91.90
2023-04-02T01:11:44.961Z,90.90
2023-04-02T01:17:26.547Z,94.40
2023-04-02T01:22:49.376Z,98.20
2023-04-02T01:28:13.622Z,90.70
2023-04-02T01:33:30.336Z,90.30
2023-04-02T01:38:45.942Z,104.70
2023-04-02T01:44:03.067Z,102.50
2023-04-02T01:49:21.562Z,103.60
2023-04-02T01:54:25.942Z,111.10
2023-04-02T01:59:33.275Z,103.60
2023-04-02T02:04:47.047Z,108.30
2023-04-02T02:09:54.137Z,107.10
2023-04-02T02:14:59.408Z,95.50
2023-04-02T02:20:15.000Z,111.50
2023-04-02T02:25:30.937Z,111.80
2023-04-02T02:32:05.120Z,112.70
2023-04-02T02:42:42.843Z,104.50
2023-04-02T02:47:48.381Z,106.70
2023-04-02T02:53:15.531Z,106.00
2023-04-02T02:58:39.011Z,116.40
2023-04-02T03:03:59.213Z,114.30
2023-04-02T03:09:31.532Z,124.50
2023-04-02T03:14:41.028Z,119.90
2023-04-02T03:20:02.470Z,132.30
2023-04-02T03:25:24.825Z,139.40
2023-04-02T03:30:50.492Z,138.10
2023-04-02T03:36:14.892Z,149.70
2023-04-02T03:41:47.196Z,152.00
2023-04-02T03:47:20.363Z,152.30
2023-04-02T03:52:27.248Z,133.70
2023-04-02T03:57:48.839Z,171.90
2023-04-02T04:02:57.708Z,134.40
2023-04-02T04:08:50.486Z,104.30
2023-04-02T04:14:05.876Z,103.70
2023-04-02T04:20:02.687Z,98.30
2023-04-02T04:26:09.956Z,105.30
2023-04-02T04:36:56.060Z,103.70
2023-04-02T04:42:19.030Z,112.60
2023-04-02T04:48:12.450Z,83.60
2023-04-02T04:53:50.458Z,73.20
2023-04-02T04:59:21.392Z,35.80
2023-04-02T05:05:03.703Z,24.40
2023-04-02T05:11:04.789Z,20.30
2023-04-02T05:16:45.745Z,23.80
2023-04-02T05:22:26.241Z,18.80
2023-04-02T05:28:01.059Z,16.70
2023-04-02T05:33:18.242Z,13.70
2023-04-02T05:38:32.024Z,13.80
2023-04-02T05:43:48.210Z,14.00
2023-04-02T05:48:56.886Z,13.60
2023-04-02T05:54:04.015Z,11.20
2023-04-02T05:59:37.714Z,12.10
2023-04-02T06:05:02.222Z,9.60
2023-04-02T06:10:14.464Z,8.70
2023-04-02T06:15:21.520Z,8.40
2023-04-02T06:20:27.533Z,11.90
2023-04-02T06:25:47.958Z,11.10
2023-04-02T06:30:54.860Z,9.60
2023-04-02T06:36:04.259Z,9.30
2023-04-02T06:41:19.576Z,8.20
2023-04-02T06:46:55.024Z,7.90
2023-04-02T06:52:00.490Z,6.90
2023-04-02T06:57:05.843Z,6.20
2023-04-02T07:02:31.409Z,6.50
2023-04-02T07:07:37.165Z,6.90
2023-04-02T07:12:45.558Z,6.80
2023-04-02T07:17:52.751Z,6.40
2023-04-02T07:22:56.075Z,3.50
2023-04-02T07:28:14.001Z,3.30
2023-04-02T07:33:23.576Z,2.20
2023-04-02T07:38:25.947Z,3.20
2023-04-02T07:43:28.862Z,3.90
2023-04-02T07:48:34.150Z,4.30
2023-04-02T07:53:41.894Z,3.20
2023-04-02T07:58:44.536Z,4.40
2023-04-02T08:03:47.946Z,6.70
2023-04-02T08:08:51.451Z,5.00
2023-04-02T08:13:53.645Z,4.60
2023-04-02T08:18:56.791Z,5.40
2023-04-02T08:23:59.803Z,5.90
2023-04-02T08:29:05.091Z,8.50
2023-04-02T08:34:09.309Z,7.40
2023-04-02T08:39:34.260Z,10.10
2023-04-02T08:44:52.751Z,10.00
2023-04-02T08:50:02.393Z,13.60
2023-04-02T08:55:32.853Z,16.00
2023-04-02T09:00:45.658Z,17.80
2023-04-02T09:05:51.701Z,19.80
2023-04-02T09:11:13.275Z,25.30
2023-04-02T09:16:39.419Z,26.40
2023-04-02T09:21:53.468Z,28.40
2023-04-02T09:26:56.852Z,33.80
2023-04-02T09:32:50.088Z,30.30
2023-04-02T09:38:17.667Z,28.30
2023-04-02T09:43:30.681Z,30.10
2023-04-02T09:48:41.462Z,22.50
2023-04-02T09:53:49.136Z,23.40
2023-04-02T09:59:13.755Z,24.10
2023-04-02T10:04:45.306Z,26.80
2023-04-02T10:09:58.679Z,27.30
2023-04-02T10:15:06.681Z,24.20
2023-04-02T10:20:20.108Z,25.40
2023-04-02T10:25:30.512Z,20.40
2023-04-02T10:31:08.918Z,26.20
2023-04-02T10:36:55.085Z,23.00
2023-04-02T10:42:30.698Z,24.70
2023-04-02T10:48:16.780Z,21.30
2023-04-02T10:53:48.466Z,17.20
2023-04-02T10:59:01.844Z,17.20
2023-04-02T11:04:21.718Z,16.80
2023-04-02T11:09:41.028Z,16.60
2023-04-02T11:14:43.492Z,15.00
2023-04-02T11:19:56.651Z,15.70
2023-04-02T11:25:14.288Z,13.30
2023-04-02T11:30:30.358Z,15.00
2023-04-02T11:35:53.086Z,15.10
2023-04-02T11:41:00.988Z,14.40
2023-04-02T11:46:41.784Z,16.30
2023-04-02T11:51:56.393Z,15.70
2023-04-02T11:57:33.258Z,16.70
2023-04-02T12:02:57.302Z,15.40
2023-04-02T12:08:22.745Z,15.90
2023-04-02T12:13:58.768Z,15.40
2023-04-02T12:19:19.504Z,17.10
2023-04-02T12:24:44.552Z,17.70
2023-04-02T12:29:57.935Z,17.60
2023-04-02T12:35:05.026Z,19.30
2023-04-02T12:40:26.507Z,18.70
2023-04-02T12:45:39.583Z,18.00
2023-04-02T12:50:50.725Z,21.60
2023-04-02T12:55:59.112Z,18.60
2023-04-02T13:01:27.601Z,22.60
2023-04-02T13:06:41.247Z,17.80
2023-04-02T13:11:46.281Z,19.40
2023-04-02T13:17:00.826Z,19.90
2023-04-02T13:22:43.735Z,14.90
2023-04-02T13:27:59.649Z,16.60
2023-04-02T13:33:13.896Z,19.70
2023-04-02T13:38:21.322Z,19.60
2023-04-02T13:43:42.994Z,17.50
2023-04-02T13:49:09.305Z,20.10
2023-04-02T13:55:04.408Z,21.00
2023-04-02T14:00:17.383Z,19.40
2023-04-02T14:05:57.716Z,18.10
2023-04-02T14:11:40.232Z,18.90
2023-04-02T14:17:21.962Z,22.60
2023-04-02T14:23:07.299Z,19.50
2023-04-02T14:28:59.540Z,23.90
2023-04-02T14:34:39.214Z,24.80
2023-04-02T14:40:07.884Z,20.90
2023-04-02T14:45:31.700Z,24.50
2023-04-02T14:50:50.370Z,20.60
2023-04-02T14:55:59.703Z,23.20
2023-04-02T15:01:15.384Z,26.50
2023-04-02T15:06:25.314Z,30.40
2023-04-02T15:12:18.425Z,28.00
2023-04-02T15:17:59.871Z,22.00
2023-04-02T15:23:57.567Z,20.40
2023-04-02T15:29:58.789Z,23.50
2023-04-02T15:35:29.021Z,13.30
2023-04-02T15:41:25.324Z,17.10
2023-04-02T15:46:53.235Z,16.40
2023-04-02T15:52:43.837Z,14.00
2023-04-02T15:58:21.993Z,11.30
2023-04-02T16:04:13.954Z,13.70
2023-04-02T16:09:32.156Z,16.30
2023-04-02T16:14:50.793Z,17.50
2023-04-02T16:20:57.106Z,17.20
2023-04-02T16:26:16.023Z,19.90
2023-04-02T16:31:53.647Z,15.50
2023-04-02T16:37:38.266Z,16.70
2023-04-02T16:43:15.513Z,11.50
2023-04-02T16:49:36.218Z,12.80
2023-04-02T16:55:25.732Z,12.50
2023-04-02T17:01:17.215Z,21.80
2023-04-02T17:06:54.014Z,18.90
2023-04-02T17:12:24.408Z,17.70
2023-04-02T17:17:42.868Z,18.60
2023-04-02T17:23:05.846Z,20.60
2023-04-02T17:28:42.534Z,14.60
2023-04-02T17:33:45.096Z,19.00
2023-04-02T17:39:47.214Z,18.70
2023-04-02T17:45:05.175Z,13.10
2023-04-02T17:50:25.195Z,12.10
2023-04-02T17:55:43.263Z,9.60
2023-04-02T18:01:22.241Z,10.70
2023-04-02T18:06:38.080Z,11.70
2023-04-02T18:12:27.870Z,14.20
2023-04-02T18:17:54.299Z,17.60
2023-04-02T18:23:40.530Z,15.40
2023-04-02T18:28:56.384Z,14.50
2023-04-02T18:34:40.200Z,10.60
2023-04-02T18:39:54.272Z,13.50
2023-04-02T18:45:30.376Z,15.90
2023-04-02T18:50:41.905Z,17.40
2023-04-02T18:55:55.375Z,15.90
2023-04-02T19:06:46.548Z,13.80
2023-04-02T19:12:06.768Z,15.20
2023-04-02T19:17:39.480Z,18.80
2023-04-02T19:23:10.721Z,18.70
2023-04-02T19:29:17.758Z,18.20
2023-04-02T19:34:34.418Z,16.90
2023-04-02T19:40:31.086Z,17.00
2023-04-02T19:45:46.901Z,15.90
2023-04-02T19:50:51.952Z,17.80
2023-04-02T19:55:57.562Z,17.10
2023-04-02T20:01:01.561Z,14.00
2023-04-02T20:06:06.838Z,12.80
2023-04-02T20:11:14.827Z,13.00
2023-04-02T20:16:17.018Z,16.00
2023-04-02T20:21:19.963Z,15.60
2023-04-02T20:26:34.236Z,19.10
2023-04-02T20:31:49.851Z,18.80
2023-04-02T20:36:54.320Z,22.80
2023-04-02T20:42:02.742Z,31.60
2023-04-02T20:47:08.055Z,18.40
2023-04-02T20:52:16.292Z,15.50
2023-04-02T20:57:21.774Z,15.20
2023-04-02T21:02:35.275Z,15.90
2023-04-02T21:07:49.346Z,14.50
2023-04-02T21:13:14.123Z,17.60
2023-04-02T21:18:22.145Z,16.50
2023-04-02T21:23:30.902Z,19.50
2023-04-02T21:28:36.317Z,18.40
2023-04-02T21:33:50.600Z,14.70
2023-04-02T21:39:23.022Z,16.90
2023-04-02T21:44:29.668Z,14.60
2023-04-02T21:49:39.037Z,13.20
2023-04-02T21:54:53.135Z,12.40
2023-04-02T22:00:12.383Z,11.20
2023-04-02T22:05:17.634Z,10.30
2023-04-02T22:10:31.449Z,9.70
2023-04-02T22:15:35.186Z,9.00
2023-04-02T22:20:41.227Z,4.70
2023-04-02T22:26:09.655Z,7.30
2023-04-02T22:31:19.057Z,7.10
2023-04-02T22:36:37.050Z,8.90
2023-04-02T22:41:42.361Z,8.00
2023-04-02T22:46:50.762Z,10.20
2023-04-02T22:52:28.459Z,7.90
2023-04-02T22:58:02.624Z,7.70
2023-04-02T23:03:14.859Z,8.10
2023-04-02T23:08:28.499Z,8.60
2023-04-02T23:13:49.313Z,8.30
2023-04-02T23:19:22.341Z,8.70
2023-04-02T23:24:27.606Z,10.20
2023-04-02T23:29:30.361Z,13.60
2023-04-02T23:34:33.299Z,14.80
2023-04-02T23:39:50.112Z,16.00
2023-04-02T23:45:16.254Z,18.90
2023-04-02T23:51:41.681Z,18.40
2023-04-02T23:56:46.693Z,21.90
